Biel, Switzerland
Current Conditions -  °F | °C
As of 12:50 PM on Sunday 23 Nov 2014 (Local Time) from LSZG Reporting Station
Moderate Fog Moderate Fog  
Wind Chill: 40°   Ceiling: 200
Heat Index: 43°   Visibility: 0.43mi
Dew Point: 43°   Wind: 5mph
Humidity: 100%   Direction: 230°SW
Pressure: 30.21"   Gusts: NA
Location:  47.15°N, 7.24°E
Report Text: LSZG 231150Z 23004KT 0700 FG OVC002 06/06 Q1023 NOSIG
Loading
Personal Weather Stations






























Interactive Weather Map New forecast layout! Learn more

10-Day Weather Forecast

Advertisements
Track Severe Weather on mobile